createdAt,value
2018-07-08T00:00:20.132Z,15.95
2018-07-08T00:02:54.480Z,15.93
2018-07-08T00:05:28.937Z,15.90
2018-07-08T00:08:03.638Z,15.84
2018-07-08T00:10:40.553Z,15.76
2018-07-08T00:13:14.948Z,15.76
2018-07-08T00:15:49.752Z,15.77
2018-07-08T00:18:25.048Z,15.70
2018-07-08T00:20:59.508Z,15.61
2018-07-08T00:23:33.908Z,15.59
2018-07-08T00:26:08.380Z,15.52
2018-07-08T00:28:42.805Z,15.41
2018-07-08T00:31:17.211Z,15.41
2018-07-08T00:33:51.599Z,15.39
2018-07-08T00:36:26.010Z,15.30
2018-07-08T00:39:00.476Z,15.25
2018-07-08T00:41:34.887Z,15.22
2018-07-08T00:44:09.347Z,15.19
2018-07-08T00:46:43.900Z,15.06
2018-07-08T00:49:18.428Z,14.98
2018-07-08T00:51:52.922Z,15.06
2018-07-08T00:54:27.593Z,15.09
2018-07-08T00:57:02.187Z,14.98
2018-07-08T00:59:36.705Z,14.97
2018-07-08T01:02:11.416Z,15.01
2018-07-08T01:04:46.032Z,14.94
2018-07-08T01:07:20.610Z,14.82
2018-07-08T01:09:55.239Z,14.80
2018-07-08T01:12:29.778Z,14.79
2018-07-08T01:15:05.005Z,14.86
2018-07-08T01:17:39.398Z,14.85
2018-07-08T01:20:14.090Z,14.81
2018-07-08T01:22:48.708Z,14.77
2018-07-08T01:25:34.571Z,14.65
2018-07-08T01:28:09.040Z,14.55
2018-07-08T01:30:43.551Z,14.48
2018-07-08T01:33:18.003Z,14.48
2018-07-08T01:35:52.460Z,14.42
2018-07-08T01:38:26.993Z,14.42
2018-07-08T01:41:01.469Z,14.37
2018-07-08T01:43:35.884Z,14.31
2018-07-08T01:46:10.492Z,14.24
2018-07-08T01:48:45.048Z,14.15
2018-07-08T01:51:19.691Z,14.14
2018-07-08T01:53:54.132Z,14.03
2018-07-08T01:56:28.761Z,13.95
2018-07-08T01:59:03.266Z,13.96
2018-07-08T02:01:37.805Z,13.96
2018-07-08T02:04:12.482Z,13.89
2018-07-08T02:06:47.072Z,13.86
2018-07-08T02:09:21.542Z,13.83
2018-07-08T02:11:56.329Z,13.77
2018-07-08T02:14:30.827Z,13.67
2018-07-08T02:17:05.267Z,13.64
2018-07-08T02:19:39.813Z,13.55
2018-07-08T02:22:14.367Z,13.55
2018-07-08T02:24:49.140Z,13.57
2018-07-08T02:27:23.668Z,13.52
2018-07-08T02:29:58.155Z,13.53
2018-07-08T02:32:32.774Z,13.53
2018-07-08T02:35:07.303Z,13.46
2018-07-08T02:37:41.918Z,13.43
2018-07-08T02:40:16.545Z,13.43
2018-07-08T02:42:51.032Z,13.32
2018-07-08T02:45:25.616Z,13.28
2018-07-08T02:48:00.452Z,13.23
2018-07-08T02:50:35.258Z,13.16
2018-07-08T02:53:09.823Z,13.05
2018-07-08T02:55:44.316Z,13.06
2018-07-08T02:58:18.779Z,13.07
2018-07-08T03:00:53.373Z,13.01
2018-07-08T03:03:27.966Z,13.01
2018-07-08T03:06:02.480Z,12.91
2018-07-08T03:08:37.008Z,12.91
2018-07-08T03:11:11.471Z,12.85
2018-07-08T03:13:46.197Z,12.75
2018-07-08T03:16:20.693Z,12.75
2018-07-08T03:18:55.088Z,12.67
2018-07-08T03:21:29.636Z,12.68
2018-07-08T03:24:04.060Z,12.65
2018-07-08T03:26:38.503Z,12.55
2018-07-08T03:29:12.947Z,12.49
2018-07-08T03:31:47.371Z,12.52
2018-07-08T03:34:21.972Z,12.50
2018-07-08T03:36:56.414Z,12.45
2018-07-08T03:39:30.842Z,12.43
2018-07-08T03:42:05.244Z,12.41
2018-07-08T03:44:39.881Z,12.39
2018-07-08T03:47:14.368Z,12.36
2018-07-08T03:49:48.780Z,12.36
2018-07-08T03:52:23.303Z,12.46
2018-07-08T03:54:57.744Z,12.42
2018-07-08T03:57:32.383Z,12.40
2018-07-08T04:00:06.840Z,12.40
2018-07-08T04:02:41.682Z,12.55
2018-07-08T04:05:16.134Z,12.56
2018-07-08T04:07:50.604Z,12.59
2018-07-08T04:10:24.892Z,12.53
2018-07-08T04:12:59.743Z,12.57
2018-07-08T04:15:34.444Z,12.56
2018-07-08T04:18:09.566Z,12.52
2018-07-08T04:20:44.053Z,12.54
2018-07-08T04:23:18.727Z,12.63
2018-07-08T04:25:53.324Z,12.57
2018-07-08T04:28:28.024Z,12.55
2018-07-08T04:31:02.517Z,12.55
2018-07-08T04:33:36.915Z,12.64
2018-07-08T04:36:11.464Z,12.73
2018-07-08T04:38:46.089Z,12.79
2018-07-08T04:41:20.784Z,12.88
2018-07-08T04:43:55.342Z,13.02
2018-07-08T04:46:29.899Z,13.17
2018-07-08T04:49:04.581Z,13.29
2018-07-08T04:51:39.126Z,13.33
2018-07-08T04:54:13.705Z,13.50
2018-07-08T04:56:48.408Z,13.51
2018-07-08T04:59:22.962Z,13.41
2018-07-08T05:01:57.474Z,13.53
2018-07-08T05:04:32.060Z,13.58
2018-07-08T05:07:06.551Z,13.56
2018-07-08T05:09:41.040Z,13.67
2018-07-08T05:12:15.390Z,13.72
2018-07-08T05:14:49.786Z,13.84
2018-07-08T05:17:24.277Z,13.93
2018-07-08T05:19:58.807Z,14.01
2018-07-08T05:22:33.404Z,14.13
2018-07-08T05:25:07.680Z,14.09
2018-07-08T05:27:42.084Z,14.12
2018-07-08T05:30:16.586Z,14.22
2018-07-08T05:32:51.184Z,14.33
2018-07-08T05:35:25.547Z,14.38
2018-07-08T05:37:59.966Z,14.60
2018-07-08T05:40:34.383Z,14.60
2018-07-08T05:43:08.965Z,14.63
2018-07-08T05:45:43.432Z,14.81
2018-07-08T05:48:18.140Z,15.02
2018-07-08T05:50:52.640Z,14.96
2018-07-08T05:53:27.248Z,15.08
2018-07-08T05:56:01.624Z,15.01
2018-07-08T05:58:36.023Z,14.98
2018-07-08T06:01:10.696Z,15.21
2018-07-08T06:03:45.216Z,15.25
2018-07-08T06:06:19.708Z,15.26
2018-07-08T06:08:54.176Z,15.29
2018-07-08T06:11:28.788Z,15.32
2018-07-08T06:14:03.252Z,15.46
2018-07-08T06:16:37.731Z,15.37
2018-07-08T06:19:12.058Z,15.71
2018-07-08T06:21:46.632Z,15.80
2018-07-08T06:24:21.384Z,15.75
2018-07-08T06:26:55.772Z,15.82
2018-07-08T06:29:30.408Z,15.99
2018-07-08T06:32:05.286Z,16.34
2018-07-08T06:34:39.870Z,16.54
2018-07-08T06:37:14.255Z,16.85
2018-07-08T06:39:48.846Z,17.21
2018-07-08T06:42:23.427Z,18.36
2018-07-08T06:44:58.064Z,21.75
2018-07-08T06:47:32.596Z,23.32
2018-07-08T06:50:07.171Z,24.11
2018-07-08T06:52:41.849Z,25.47
2018-07-08T06:55:16.615Z,25.00
2018-07-08T06:57:51.164Z,25.69
2018-07-08T07:00:25.800Z,23.08
2018-07-08T07:03:00.377Z,25.42
2018-07-08T07:05:34.960Z,26.65
2018-07-08T07:08:09.630Z,28.05
2018-07-08T07:10:44.194Z,28.29
2018-07-08T07:13:18.711Z,29.56
2018-07-08T07:15:53.260Z,26.48
2018-07-08T07:18:27.688Z,28.53
2018-07-08T07:21:02.057Z,28.50
2018-07-08T07:23:36.657Z,27.92
2018-07-08T07:26:11.241Z,26.48
2018-07-08T07:28:45.857Z,25.57
2018-07-08T07:31:20.317Z,26.17
2018-07-08T07:33:55.112Z,28.79
2018-07-08T07:36:29.676Z,27.25
2018-07-08T07:39:04.761Z,29.08
2018-07-08T07:41:39.491Z,29.21
2018-07-08T07:44:14.096Z,26.63
2018-07-08T07:46:48.545Z,28.03
2018-07-08T07:49:23.116Z,30.47
2018-07-08T07:51:57.701Z,29.36
2018-07-08T07:54:32.218Z,31.56
2018-07-08T07:57:07.127Z,30.28
2018-07-08T07:59:41.644Z,30.62
2018-07-08T08:02:15.983Z,30.74
2018-07-08T08:04:50.517Z,27.72
2018-07-08T08:07:24.899Z,29.54
2018-07-08T08:09:59.328Z,29.47
2018-07-08T08:12:33.826Z,30.32
2018-07-08T08:15:08.379Z,30.65
2018-07-08T08:17:42.705Z,30.37
2018-07-08T08:20:17.248Z,29.02
2018-07-08T08:22:51.669Z,29.48
2018-07-08T08:25:25.987Z,30.70
2018-07-08T08:28:00.400Z,32.37
2018-07-08T08:30:34.920Z,32.37
2018-07-08T08:33:09.508Z,32.02
2018-07-08T08:35:43.876Z,30.66
2018-07-08T08:38:18.386Z,29.38
2018-07-08T08:40:52.701Z,30.90
2018-07-08T08:43:27.175Z,33.55
2018-07-08T08:46:01.632Z,33.80
2018-07-08T08:48:36.052Z,31.12
2018-07-08T08:51:10.627Z,32.18
2018-07-08T08:53:45.217Z,31.13
2018-07-08T08:56:19.858Z,32.07
2018-07-08T08:58:54.361Z,31.60
2018-07-08T09:01:28.772Z,34.85
2018-07-08T09:04:03.444Z,31.34
2018-07-08T09:06:38.280Z,31.41
2018-07-08T09:09:12.812Z,32.11
2018-07-08T09:11:47.222Z,32.20
2018-07-08T09:14:22.168Z,29.35
2018-07-08T09:16:56.852Z,28.94
2018-07-08T09:19:31.501Z,29.35
2018-07-08T09:22:06.588Z,29.23
2018-07-08T09:24:41.013Z,29.83
2018-07-08T09:27:15.517Z,29.51
2018-07-08T09:29:49.908Z,30.20
2018-07-08T09:32:24.359Z,29.42
2018-07-08T09:34:58.923Z,32.84
2018-07-08T09:37:33.348Z,29.91
2018-07-08T09:40:07.773Z,31.91
2018-07-08T09:42:42.245Z,29.56
2018-07-08T09:45:16.796Z,29.89
2018-07-08T09:47:51.194Z,31.45
2018-07-08T09:50:25.516Z,31.55
2018-07-08T09:52:59.921Z,29.18
2018-07-08T09:55:34.546Z,29.05
2018-07-08T09:58:08.935Z,30.73
2018-07-08T10:00:43.340Z,31.73
2018-07-08T10:03:17.788Z,34.29
2018-07-08T10:05:52.243Z,33.64
2018-07-08T10:08:27.024Z,33.88
2018-07-08T10:11:01.607Z,32.49
2018-07-08T10:13:36.269Z,33.52
2018-07-08T10:16:10.810Z,32.45
2018-07-08T10:18:45.268Z,33.98
2018-07-08T10:21:19.731Z,33.29
2018-07-08T10:23:54.244Z,31.00
2018-07-08T10:26:28.789Z,33.87
2018-07-08T10:29:03.208Z,33.14
2018-07-08T10:31:46.211Z,33.23
2018-07-08T10:34:20.727Z,32.04
2018-07-08T10:36:55.265Z,33.46
2018-07-08T10:39:29.724Z,33.18
2018-07-08T10:42:04.217Z,32.27
2018-07-08T10:44:38.741Z,31.57
2018-07-08T10:47:13.291Z,29.41
2018-07-08T10:49:47.671Z,28.92
2018-07-08T10:52:22.117Z,30.34
2018-07-08T10:54:56.401Z,30.89
2018-07-08T10:57:30.911Z,33.19
2018-07-08T11:00:05.378Z,33.30
2018-07-08T11:02:39.843Z,34.83
2018-07-08T11:05:14.273Z,33.94
2018-07-08T11:07:48.535Z,33.72
2018-07-08T11:10:22.836Z,33.84
2018-07-08T11:12:57.276Z,35.56
2018-07-08T11:15:31.603Z,33.25
2018-07-08T11:18:06.004Z,29.94
2018-07-08T11:20:40.526Z,30.07
2018-07-08T11:23:15.060Z,33.93
2018-07-08T11:25:49.444Z,33.24
2018-07-08T11:28:23.835Z,33.17
2018-07-08T11:30:58.183Z,34.57
2018-07-08T11:33:32.562Z,33.65
2018-07-08T11:36:07.103Z,34.34
2018-07-08T11:38:41.756Z,33.97
2018-07-08T11:41:16.148Z,33.38
2018-07-08T11:43:50.584Z,32.39
2018-07-08T11:46:25.127Z,32.75
2018-07-08T11:48:59.596Z,30.72
2018-07-08T11:51:34.016Z,30.79
2018-07-08T11:54:08.373Z,31.05
2018-07-08T11:56:42.931Z,29.41
2018-07-08T11:59:17.476Z,27.42
2018-07-08T12:01:52.257Z,26.92
2018-07-08T12:04:26.652Z,27.06
2018-07-08T12:07:01.122Z,27.01
2018-07-08T12:09:35.511Z,25.68
2018-07-08T12:12:09.852Z,24.50
2018-07-08T12:14:44.244Z,24.72
2018-07-08T12:17:18.479Z,24.58
2018-07-08T12:19:52.910Z,24.30
2018-07-08T12:22:27.352Z,24.52
2018-07-08T12:25:01.627Z,24.57
2018-07-08T12:27:36.274Z,23.42
2018-07-08T12:30:10.548Z,23.30
2018-07-08T12:32:44.997Z,23.45
2018-07-08T12:35:19.219Z,23.46
2018-07-08T12:37:53.491Z,23.49
2018-07-08T12:40:27.863Z,22.98
2018-07-08T12:43:02.321Z,23.16
2018-07-08T12:45:36.718Z,22.98
2018-07-08T12:48:11.138Z,23.45
2018-07-08T12:50:45.552Z,23.49
2018-07-08T12:53:19.862Z,23.80
2018-07-08T12:55:54.403Z,23.68
2018-07-08T12:58:28.685Z,23.96
2018-07-08T13:01:03.066Z,23.82
2018-07-08T13:03:37.363Z,24.02
2018-07-08T13:06:11.881Z,23.90
2018-07-08T13:08:46.316Z,23.96
2018-07-08T13:11:20.808Z,24.11
2018-07-08T13:13:55.276Z,24.27
2018-07-08T13:16:29.726Z,24.23
2018-07-08T13:19:04.259Z,24.01
2018-07-08T13:21:38.717Z,23.57
2018-07-08T13:24:13.239Z,23.83
2018-07-08T13:26:48.037Z,24.02
2018-07-08T13:29:22.488Z,24.24
2018-07-08T13:31:57.027Z,24.48
2018-07-08T13:34:31.504Z,24.34
2018-07-08T13:37:05.891Z,24.58
2018-07-08T13:39:40.149Z,24.77
2018-07-08T13:42:14.577Z,24.63
2018-07-08T13:44:48.995Z,24.78
2018-07-08T13:47:23.401Z,24.62
2018-07-08T13:49:58.158Z,24.63
2018-07-08T13:52:32.494Z,24.69
2018-07-08T13:55:06.888Z,24.78
2018-07-08T13:57:41.280Z,24.79
2018-07-08T14:00:15.741Z,24.87
2018-07-08T14:02:50.362Z,25.37
2018-07-08T14:05:24.908Z,25.06
2018-07-08T14:07:59.502Z,24.98
2018-07-08T14:10:33.868Z,25.23
2018-07-08T14:13:08.760Z,25.86
2018-07-08T14:15:43.147Z,26.17
2018-07-08T14:18:17.553Z,26.17
2018-07-08T14:20:52.062Z,26.14
2018-07-08T14:23:26.560Z,26.23
2018-07-08T14:26:00.906Z,26.09
2018-07-08T14:28:35.304Z,26.59
2018-07-08T14:31:09.933Z,27.56
2018-07-08T14:33:44.525Z,27.92
2018-07-08T14:36:19.288Z,28.41
2018-07-08T14:38:53.868Z,28.54
2018-07-08T14:41:28.193Z,28.81
2018-07-08T14:44:02.680Z,28.96
2018-07-08T14:46:37.252Z,30.15
2018-07-08T14:49:11.617Z,30.72
2018-07-08T14:51:46.346Z,30.53
2018-07-08T14:54:20.530Z,30.76
2018-07-08T14:56:55.019Z,29.67
2018-07-08T14:59:29.495Z,30.05
2018-07-08T15:02:04.051Z,28.68
2018-07-08T15:04:38.769Z,30.25
2018-07-08T15:07:13.353Z,29.90
2018-07-08T15:09:47.778Z,30.15
2018-07-08T15:12:22.208Z,30.38
2018-07-08T15:14:56.692Z,30.92
2018-07-08T15:17:31.213Z,30.93
2018-07-08T15:20:05.608Z,30.26
2018-07-08T15:22:39.982Z,28.69
2018-07-08T15:25:14.395Z,27.48
2018-07-08T15:27:48.945Z,27.33
2018-07-08T15:30:23.388Z,27.12
2018-07-08T15:32:57.853Z,26.87
2018-07-08T15:35:32.420Z,26.56
2018-07-08T15:38:06.854Z,26.21
2018-07-08T15:40:41.352Z,25.95
2018-07-08T15:43:15.750Z,25.91
2018-07-08T15:45:50.137Z,25.87
2018-07-08T15:48:24.575Z,25.63
2018-07-08T15:50:58.884Z,25.57
2018-07-08T15:53:33.294Z,25.49
2018-07-08T15:56:07.598Z,25.50
2018-07-08T15:58:41.835Z,25.27
2018-07-08T16:01:16.083Z,25.34
2018-07-08T16:03:50.400Z,24.92
2018-07-08T16:06:24.802Z,24.81
2018-07-08T16:08:59.308Z,24.86
2018-07-08T16:11:33.620Z,24.77
2018-07-08T16:14:07.876Z,24.68
2018-07-08T16:16:42.211Z,24.57
2018-07-08T16:19:16.444Z,24.55
2018-07-08T16:21:50.716Z,24.59
2018-07-08T16:24:25.415Z,24.36
2018-07-08T16:26:59.925Z,24.23
2018-07-08T16:29:34.545Z,24.11
2018-07-08T16:32:08.952Z,24.16
2018-07-08T16:34:43.556Z,24.21
2018-07-08T16:37:18.071Z,24.14
2018-07-08T16:39:52.746Z,24.08
2018-07-08T16:42:27.763Z,24.06
2018-07-08T16:45:02.144Z,24.06
2018-07-08T16:47:36.576Z,24.03
2018-07-08T16:50:11.049Z,23.90
2018-07-08T16:52:45.716Z,23.89
2018-07-08T16:55:20.240Z,23.86
2018-07-08T16:57:54.935Z,23.82
2018-07-08T17:00:29.446Z,23.85
2018-07-08T17:03:04.186Z,23.86
2018-07-08T17:05:38.649Z,23.91
2018-07-08T17:08:13.420Z,23.88
2018-07-08T17:10:48.164Z,23.91
2018-07-08T17:13:22.825Z,23.97
2018-07-08T17:15:57.492Z,23.80
2018-07-08T17:18:31.872Z,23.73
2018-07-08T17:21:06.552Z,23.64
2018-07-08T17:23:41.110Z,23.54
2018-07-08T17:26:16.632Z,23.50
2018-07-08T17:28:51.300Z,23.54
2018-07-08T17:31:25.969Z,23.60
2018-07-08T17:34:00.484Z,23.62
2018-07-08T17:36:34.964Z,23.59
2018-07-08T17:39:09.570Z,23.59
2018-07-08T17:41:44.055Z,23.53
2018-07-08T17:44:18.689Z,23.57
2018-07-08T17:46:53.209Z,23.47
2018-07-08T17:49:27.732Z,23.55
2018-07-08T17:52:02.342Z,23.56
2018-07-08T17:54:36.949Z,23.47
2018-07-08T17:57:11.354Z,23.43
2018-07-08T17:59:45.853Z,23.45
2018-07-08T18:02:20.507Z,23.42
2018-07-08T18:04:55.008Z,23.43
2018-07-08T18:07:29.392Z,23.49
2018-07-08T18:10:03.985Z,23.56
2018-07-08T18:12:38.359Z,23.41
2018-07-08T18:15:12.773Z,23.33
2018-07-08T18:17:47.423Z,23.28
2018-07-08T18:20:22.056Z,23.21
2018-07-08T18:22:56.540Z,23.19
2018-07-08T18:25:31.074Z,23.16
2018-07-08T18:28:05.633Z,23.13
2018-07-08T18:30:40.675Z,23.03
2018-07-08T18:33:15.182Z,22.95
2018-07-08T18:35:49.748Z,22.90
2018-07-08T18:38:24.523Z,22.87
2018-07-08T18:40:59.145Z,22.76
2018-07-08T18:43:33.504Z,22.75
2018-07-08T18:46:08.102Z,22.72
2018-07-08T18:48:42.722Z,22.69
2018-07-08T18:51:17.452Z,22.61
2018-07-08T18:53:52.094Z,22.59
2018-07-08T18:56:26.492Z,22.52
2018-07-08T18:59:00.953Z,22.40
2018-07-08T19:01:35.521Z,22.31
2018-07-08T19:04:10.035Z,22.30
2018-07-08T19:06:44.588Z,22.31
2018-07-08T19:09:19.089Z,22.29
2018-07-08T19:11:53.505Z,22.22
2018-07-08T19:14:27.986Z,22.23
2018-07-08T19:17:02.502Z,22.20
2018-07-08T19:19:37.038Z,22.05
2018-07-08T19:22:11.696Z,22.00
2018-07-08T19:24:46.318Z,21.91
2018-07-08T19:27:20.816Z,21.77
2018-07-08T19:29:55.340Z,21.70
2018-07-08T19:32:29.963Z,21.70
2018-07-08T19:35:04.636Z,21.59
2018-07-08T19:37:39.299Z,21.44
2018-07-08T19:40:13.772Z,21.33
2018-07-08T19:42:48.263Z,21.13
2018-07-08T19:45:22.974Z,20.97
2018-07-08T19:47:57.380Z,20.69
2018-07-08T19:50:31.887Z,20.64
2018-07-08T19:53:07.239Z,20.54
2018-07-08T19:55:41.865Z,20.47
2018-07-08T19:58:16.318Z,20.43
2018-07-08T20:00:50.857Z,20.48
2018-07-08T20:03:25.496Z,20.43
2018-07-08T20:06:00.250Z,20.37
2018-07-08T20:08:34.885Z,20.23
2018-07-08T20:11:09.392Z,20.16
2018-07-08T20:13:43.816Z,20.13
2018-07-08T20:16:18.511Z,19.98
2018-07-08T20:18:53.087Z,19.90
2018-07-08T20:21:27.689Z,19.87
2018-07-08T20:24:02.137Z,19.87
2018-07-08T20:26:36.586Z,19.83
2018-07-08T20:29:11.057Z,19.87
2018-07-08T20:31:45.576Z,19.84
2018-07-08T20:34:20.105Z,19.84
2018-07-08T20:36:54.728Z,19.85
2018-07-08T20:39:29.372Z,19.90
2018-07-08T20:42:03.932Z,19.81
2018-07-08T20:44:38.631Z,19.80
2018-07-08T20:47:13.187Z,19.84
2018-07-08T20:49:47.816Z,19.83
2018-07-08T20:52:22.307Z,19.80
2018-07-08T20:54:56.765Z,19.80
2018-07-08T20:57:31.133Z,19.73
2018-07-08T21:00:05.721Z,19.67
2018-07-08T21:02:40.412Z,19.66
2018-07-08T21:05:15.028Z,19.62
2018-07-08T21:07:49.617Z,19.58
2018-07-08T21:10:24.255Z,19.53
2018-07-08T21:12:58.901Z,19.42
2018-07-08T21:15:33.511Z,19.33
2018-07-08T21:18:08.009Z,19.31
2018-07-08T21:20:42.502Z,19.18
2018-07-08T21:23:17.133Z,19.13
2018-07-08T21:25:51.863Z,19.02
2018-07-08T21:28:26.267Z,19.00
2018-07-08T21:31:00.713Z,18.96
2018-07-08T21:33:35.383Z,18.96
2018-07-08T21:36:10.089Z,18.94
2018-07-08T21:38:44.625Z,18.87
2018-07-08T21:41:19.164Z,18.89
2018-07-08T21:43:53.853Z,18.79
2018-07-08T21:46:28.404Z,18.80
2018-07-08T21:49:02.834Z,18.78
2018-07-08T21:51:37.756Z,18.76
2018-07-08T21:54:12.357Z,18.67
2018-07-08T21:56:46.867Z,18.70
2018-07-08T21:59:21.413Z,18.65
2018-07-08T22:02:00.564Z,18.61
2018-07-08T22:04:34.909Z,18.54
2018-07-08T22:07:14.716Z,18.56
2018-07-08T22:09:49.351Z,18.53
2018-07-08T22:12:23.858Z,18.51
2018-07-08T22:14:58.425Z,18.47
2018-07-08T22:17:33.092Z,18.39
2018-07-08T22:20:07.752Z,18.37
2018-07-08T22:22:42.160Z,18.38
2018-07-08T22:25:16.757Z,18.30
2018-07-08T22:27:51.351Z,18.20
2018-07-08T22:30:25.832Z,18.19
2018-07-08T22:33:00.459Z,18.10
2018-07-08T22:35:34.788Z,18.05
2018-07-08T22:38:09.281Z,17.98
2018-07-08T22:40:43.996Z,17.96
2018-07-08T22:43:18.521Z,17.90
2018-07-08T22:45:53.095Z,17.82
2018-07-08T22:48:27.543Z,17.76
2018-07-08T22:51:01.992Z,17.72
2018-07-08T22:53:36.428Z,17.73
2018-07-08T22:56:11.096Z,17.69
2018-07-08T22:58:45.765Z,17.67
2018-07-08T23:02:35.165Z,17.64
2018-07-08T23:05:09.636Z,17.57
2018-07-08T23:07:44.225Z,17.49
2018-07-08T23:10:18.720Z,17.44
2018-07-08T23:12:53.280Z,17.43
2018-07-08T23:15:27.860Z,17.43
2018-07-08T23:18:02.503Z,17.41
2018-07-08T23:20:36.900Z,17.41
2018-07-08T23:23:11.465Z,17.43
2018-07-08T23:25:46.085Z,17.38
2018-07-08T23:28:20.450Z,17.45
2018-07-08T23:30:54.963Z,17.37
2018-07-08T23:33:29.683Z,17.29
2018-07-08T23:36:05.044Z,17.22
2018-07-08T23:38:39.717Z,17.26
2018-07-08T23:41:14.445Z,17.18
2018-07-08T23:43:49.056Z,17.19
2018-07-08T23:46:23.646Z,17.13
2018-07-08T23:48:58.296Z,17.11
2018-07-08T23:51:32.882Z,17.03
2018-07-08T23:54:07.305Z,16.97
2018-07-08T23:56:41.948Z,16.90
2018-07-08T23:59:16.381Z,16.85
